Time;durP1;ratioP1;P1;durP2;ratioP2;P2;SDS_P1;SDS_P2;PMS_P1;PMS_P2;Temp;Humidity;BMP_temperature;BMP_pressure;BME280_temperature;BME280_humidity;BME280_pressure;Samples;Min_cycle;Max_cycle;Signal;HPM_P1;HPM_P2
2023/12/03 00:00:40;;;;;;;20.55;10.07;;;0.90;99.90;;;;;;5112416;28;20080;-88
2023/12/03 00:03:07;;;;;;;20.23;7.80;;;0.80;99.90;;;;;;5113053;28;20434;-88
2023/12/03 00:05:34;;;;;;;12.40;6.70;;;0.80;99.90;;;;;;5095689;28;20124;-88
2023/12/03 00:08:01;;;;;;;19.75;7.43;;;0.80;99.90;;;;;;5111840;28;20493;-88
2023/12/03 00:10:26;;;;;;;21.13;6.53;;;0.80;99.90;;;;;;5112332;28;20126;-88
2023/12/03 00:12:52;;;;;;;22.88;10.30;;;0.80;99.90;;;;;;5112314;28;20169;-88
2023/12/03 00:15:17;;;;;;;22.02;10.05;;;0.70;99.90;;;;;;5095638;28;20069;-87
2023/12/03 00:17:43;;;;;;;27.98;10.98;;;0.70;99.90;;;;;;5095728;28;20047;-88
2023/12/03 00:20:09;;;;;;;20.63;9.60;;;0.70;99.90;;;;;;5095301;28;20058;-88
2023/12/03 00:22:35;;;;;;;19.27;7.72;;;0.70;99.90;;;;;;5112246;28;20444;-87
2023/12/03 00:25:00;;;;;;;20.38;8.25;;;0.70;99.90;;;;;;5095809;28;20065;-87
2023/12/03 00:27:26;;;;;;;17.98;10.35;;;0.70;99.90;;;;;;5095668;28;20552;-87
2023/12/03 00:29:51;;;;;;;21.90;10.60;;;0.70;99.90;;;;;;5094950;28;20040;-87
2023/12/03 00:32:17;;;;;;;21.27;9.75;;;0.60;99.90;;;;;;5095143;28;20040;-88
2023/12/03 00:34:43;;;;;;;23.25;10.45;;;0.60;99.90;;;;;;5112651;28;20032;-87
2023/12/03 00:37:08;;;;;;;17.80;7.43;;;0.60;99.90;;;;;;5094804;28;20031;-87
2023/12/03 00:39:34;;;;;;;18.27;7.60;;;0.50;99.90;;;;;;5111788;28;20101;-88
2023/12/03 00:42:00;;;;;;;19.02;7.95;;;0.50;99.90;;;;;;5094666;28;20642;-87
2023/12/03 00:44:25;;;;;;;22.42;11.00;;;0.50;99.90;;;;;;5094923;28;20063;-87
2023/12/03 00:46:51;;;;;;;16.77;7.78;;;0.40;99.90;;;;;;5091201;28;20043;-87
2023/12/03 00:49:17;;;;;;;11.23;5.05;;;0.40;99.90;;;;;;5111965;28;20092;-87
2023/12/03 00:51:42;;;;;;;17.42;7.22;;;0.50;99.90;;;;;;5094468;28;20501;-87
2023/12/03 00:54:08;;;;;;;11.05;5.68;;;0.40;99.90;;;;;;5094997;28;20039;-87
2023/12/03 00:56:33;;;;;;;15.55;6.82;;;0.40;99.90;;;;;;5095095;28;20406;-87
2023/12/03 00:58:59;;;;;;;17.63;6.05;;;0.30;99.90;;;;;;5110481;28;20491;-87
2023/12/03 01:01:25;;;;;;;12.18;5.25;;;0.30;99.90;;;;;;5094332;28;20040;-87
2023/12/03 01:03:51;;;;;;;10.95;4.20;;;0.40;99.90;;;;;;5094351;28;20059;-87
2023/12/03 01:06:17;;;;;;;15.48;7.45;;;0.40;99.90;;;;;;5093771;28;20039;-87
2023/12/03 01:08:42;;;;;;;13.57;5.85;;;0.40;99.90;;;;;;5110946;28;20047;-87
2023/12/03 01:11:09;;;;;;;14.77;6.25;;;0.40;99.90;;;;;;5093779;28;20406;-87
2023/12/03 01:13:34;;;;;;;24.60;8.18;;;0.40;99.90;;;;;;5093683;28;20040;-87
2023/12/03 01:16:00;;;;;;;10.90;5.85;;;0.50;99.90;;;;;;5093695;28;20058;-87
2023/12/03 01:18:26;;;;;;;21.48;7.82;;;0.50;99.90;;;;;;5111053;28;20122;-87
2023/12/03 01:20:51;;;;;;;18.27;8.48;;;0.50;99.90;;;;;;5110833;28;20036;-87
2023/12/03 01:23:17;;;;;;;11.93;4.88;;;0.50;99.90;;;;;;5110390;28;20118;-87
2023/12/03 01:25:42;;;;;;;17.10;6.00;;;0.60;99.90;;;;;;5093891;28;20036;-86
2023/12/03 01:28:08;;;;;;;7.15;4.72;;;0.60;99.90;;;;;;5110732;28;20411;-87
2023/12/03 01:30:33;;;;;;;13.73;7.38;;;0.60;99.90;;;;;;5110639;28;20040;-87
2023/12/03 01:32:59;;;;;;;10.07;6.30;;;0.60;99.90;;;;;;5110552;28;20075;-87
2023/12/03 01:35:24;;;;;;;14.95;5.90;;;0.70;99.90;;;;;;5111214;28;20039;-87
2023/12/03 01:37:51;;;;;;;14.10;6.50;;;0.70;99.90;;;;;;5094176;28;20035;-87
2023/12/03 01:40:17;;;;;;;10.50;5.93;;;0.70;99.90;;;;;;5094181;28;20459;-87
2023/12/03 01:42:42;;;;;;;11.77;5.82;;;0.60;99.90;;;;;;5110371;28;20533;-87
2023/12/03 01:45:08;;;;;;;9.02;5.00;;;0.80;99.90;;;;;;5093640;28;20047;-87
2023/12/03 01:47:35;;;;;;;15.77;3.90;;;0.80;99.90;;;;;;5129907;27;20043;-87
2023/12/03 01:50:07;;;;;;;9.20;3.80;;;0.80;99.90;;;;;;5113583;27;20522;-87
2023/12/03 01:52:34;;;;;;;18.20;6.20;;;0.80;99.90;;;;;;5130924;27;20521;-87
2023/12/03 01:55:01;;;;;;;11.75;5.18;;;0.80;99.90;;;;;;5108216;28;20036;-87
2023/12/03 01:57:27;;;;;;;18.70;8.30;;;0.80;99.90;;;;;;5110423;28;20042;-87
2023/12/03 01:59:52;;;;;;;16.80;5.78;;;0.90;99.90;;;;;;5109788;28;20114;-87
2023/12/03 02:02:18;;;;;;;18.92;5.90;;;0.90;99.90;;;;;;5093381;28;20261;-87
2023/12/03 02:04:44;;;;;;;13.13;6.43;;;0.90;99.90;;;;;;5093748;28;20045;-87
2023/12/03 02:07:09;;;;;;;10.13;4.30;;;0.90;99.90;;;;;;5109488;28;20121;-87
2023/12/03 02:09:36;;;;;;;10.73;5.10;;;1.00;99.90;;;;;;5089041;28;20063;-87
2023/12/03 02:12:02;;;;;;;15.63;6.75;;;1.00;99.90;;;;;;5093115;28;20517;-87
2023/12/03 02:14:28;;;;;;;14.25;5.25;;;1.00;99.90;;;;;;5093560;28;20036;-87
2023/12/03 02:16:53;;;;;;;13.07;5.72;;;1.00;99.90;;;;;;5093386;28;20054;-87
2023/12/03 02:19:19;;;;;;;19.92;8.05;;;1.00;99.90;;;;;;5109849;28;20040;-87
2023/12/03 02:21:45;;;;;;;49.67;12.48;;;1.00;99.90;;;;;;5109694;28;20126;-87
2023/12/03 02:24:10;;;;;;;34.38;9.75;;;1.00;99.90;;;;;;5093142;28;20071;-87
2023/12/03 02:26:36;;;;;;;31.45;9.13;;;1.00;99.90;;;;;;5110251;28;20039;-87
2023/12/03 02:29:01;;;;;;;21.40;7.72;;;1.00;99.90;;;;;;5092741;28;20031;-87
2023/12/03 02:31:28;;;;;;;20.77;7.07;;;1.00;99.90;;;;;;5110092;28;20038;-87
2023/12/03 02:34:14;;;;;;;42.00;8.27;;;1.00;99.90;;;;;;5092838;28;20035;-85
2023/12/03 02:36:40;;;;;;;55.80;6.07;;;1.00;99.90;;;;;;5109886;28;20058;-86
2023/12/03 02:39:06;;;;;;;7.43;4.28;;;1.00;99.90;;;;;;5092503;28;20402;-86
2023/12/03 02:41:32;;;;;;;13.57;6.15;;;0.90;99.90;;;;;;5092058;28;20506;-86
2023/12/03 02:43:58;;;;;;;15.43;5.15;;;1.00;99.90;;;;;;5092018;28;20040;-87
2023/12/03 02:46:24;;;;;;;9.65;3.85;;;1.00;99.90;;;;;;5092000;28;20043;-86
2023/12/03 02:48:49;;;;;;;38.00;8.50;;;1.00;99.90;;;;;;5109670;28;20062;-87
2023/12/03 02:51:15;;;;;;;15.10;5.57;;;1.00;99.90;;;;;;5109411;28;20096;-87
2023/12/03 02:53:44;;;;;;;17.40;6.80;;;1.00;99.90;;;;;;5092542;28;20392;-87
2023/12/03 02:56:12;;;;;;;31.20;8.73;;;1.00;99.90;;;;;;5093214;28;20054;-87
2023/12/03 02:58:38;;;;;;;16.45;5.22;;;1.00;99.90;;;;;;5109063;28;20035;-86
2023/12/03 03:01:05;;;;;;;31.85;8.10;;;1.00;99.90;;;;;;5109077;28;20522;-87
2023/12/03 03:03:31;;;;;;;29.13;6.13;;;1.10;99.90;;;;;;5092285;28;20047;-87
2023/12/03 03:05:56;;;;;;;11.23;5.40;;;1.00;99.90;;;;;;5109148;28;20054;-87
2023/12/03 03:08:22;;;;;;;20.65;6.68;;;1.10;99.90;;;;;;5103953;28;20070;-87
2023/12/03 03:10:47;;;;;;;18.85;7.35;;;1.10;99.90;;;;;;5092920;28;20042;-87
2023/12/03 03:13:13;;;;;;;12.52;4.97;;;1.10;99.90;;;;;;5109485;28;20118;-87
2023/12/03 03:15:39;;;;;;;9.95;4.88;;;1.10;99.90;;;;;;5092666;28;20502;-87
2023/12/03 03:18:04;;;;;;;25.50;5.38;;;1.10;99.90;;;;;;5092816;28;20032;-87
2023/12/03 03:20:30;;;;;;;26.13;7.68;;;1.20;99.90;;;;;;5109948;28;20050;-87
2023/12/03 03:22:55;;;;;;;37.10;9.48;;;1.20;99.90;;;;;;5095993;28;20039;-87
2023/12/03 03:25:21;;;;;;;29.85;8.25;;;1.10;99.90;;;;;;5113616;28;20521;-87
2023/12/03 03:27:47;;;;;;;19.50;6.45;;;1.10;99.90;;;;;;5113541;28;20028;-87
2023/12/03 03:30:12;;;;;;;31.95;9.75;;;1.10;99.90;;;;;;5113148;28;20666;-88
2023/12/03 03:32:38;;;;;;;24.80;6.60;;;1.20;99.90;;;;;;5112946;28;20031;-87
2023/12/03 03:35:04;;;;;;;17.27;6.35;;;1.20;99.90;;;;;;5113191;28;20047;-87
2023/12/03 03:37:29;;;;;;;21.40;8.32;;;1.30;99.90;;;;;;5095192;28;20045;-87
2023/12/03 03:39:55;;;;;;;23.23;7.25;;;1.20;99.90;;;;;;5095245;28;20040;-87
2023/12/03 03:42:21;;;;;;;28.75;9.00;;;1.20;99.90;;;;;;5095238;28;20086;-87
2023/12/03 03:44:46;;;;;;;20.98;7.47;;;1.30;99.90;;;;;;5112329;28;20499;-87
2023/12/03 03:47:13;;;;;;;15.18;5.78;;;1.20;99.90;;;;;;5103759;28;20028;-87
2023/12/03 03:49:39;;;;;;;10.48;4.50;;;1.30;99.90;;;;;;5106804;27;20481;-87
2023/12/03 03:52:05;;;;;;;19.08;7.13;;;1.30;99.90;;;;;;5108131;28;20538;-87
2023/12/03 03:54:31;;;;;;;16.02;7.15;;;1.40;99.90;;;;;;5095648;28;20096;-87
2023/12/03 03:56:56;;;;;;;18.85;7.05;;;1.40;99.90;;;;;;5096115;28;20027;-87
2023/12/03 03:59:22;;;;;;;15.05;6.45;;;1.30;99.90;;;;;;5114148;28;20118;-87
2023/12/03 04:01:47;;;;;;;14.63;6.10;;;1.40;99.90;;;;;;5095531;28;20046;-87
2023/12/03 04:04:13;;;;;;;22.13;8.48;;;1.40;99.90;;;;;;5113003;28;20039;-88
2023/12/03 04:06:39;;;;;;;26.77;8.85;;;1.30;99.90;;;;;;5095790;28;20042;-88
2023/12/03 04:09:06;;;;;;;22.63;9.18;;;1.40;99.90;;;;;;5112260;28;20187;-87
2023/12/03 04:11:37;;;;;;;23.13;9.77;;;1.40;99.90;;;;;;5095040;28;20043;-87
2023/12/03 04:14:03;;;;;;;10.70;5.68;;;1.40;99.90;;;;;;5095475;28;20646;-87
2023/12/03 04:16:28;;;;;;;22.77;9.15;;;1.40;99.90;;;;;;5112302;28;20035;-88
2023/12/03 04:18:54;;;;;;;25.65;8.05;;;1.40;99.90;;;;;;5095751;28;20036;-88
2023/12/03 04:21:20;;;;;;;17.77;7.90;;;1.50;99.90;;;;;;5095163;28;20092;-88
2023/12/03 04:23:45;;;;;;;18.63;7.95;;;1.50;99.90;;;;;;5112318;28;20044;-87
2023/12/03 04:26:12;;;;;;;15.18;7.38;;;1.50;99.90;;;;;;5112544;28;20043;-88
2023/12/03 04:28:41;;;;;;;23.48;8.38;;;1.50;99.90;;;;;;5095138;28;20057;-88
2023/12/03 04:31:17;;;;;;;18.35;7.25;;;1.50;99.90;;;;;;5094689;28;20039;-88
2023/12/03 04:33:42;;;;;;;21.73;8.88;;;1.40;99.90;;;;;;5093870;28;20044;-88
2023/12/03 04:36:08;;;;;;;22.45;8.07;;;1.50;99.90;;;;;;5094985;28;20089;-88
2023/12/03 04:38:35;;;;;;;20.50;8.43;;;1.50;99.90;;;;;;5112155;28;20035;-87
2023/12/03 04:41:01;;;;;;;16.02;7.30;;;1.50;99.90;;;;;;5094735;28;20027;-88
2023/12/03 04:43:27;;;;;;;11.73;7.70;;;1.50;99.90;;;;;;5095183;28;20097;-88
2023/12/03 04:45:52;;;;;;;13.23;5.75;;;1.50;99.90;;;;;;5094911;28;20498;-88
2023/12/03 04:48:18;;;;;;;23.45;8.07;;;1.50;99.90;;;;;;5111875;28;20043;-87
2023/12/03 04:50:43;;;;;;;25.23;8.73;;;1.50;99.90;;;;;;5112087;28;20039;-87
2023/12/03 04:53:09;;;;;;;23.90;9.32;;;1.50;99.90;;;;;;5093765;28;20437;-87
2023/12/03 04:55:34;;;;;;;15.80;5.72;;;1.50;99.90;;;;;;5110486;28;20047;-88
2023/12/03 04:58:00;;;;;;;24.13;9.50;;;1.50;99.90;;;;;;5093815;28;20027;-87
2023/12/03 05:00:25;;;;;;;24.42;9.75;;;1.60;99.90;;;;;;5094176;28;20070;-87
2023/12/03 05:02:51;;;;;;;18.48;7.95;;;1.50;99.90;;;;;;5110845;28;20513;-88
2023/12/03 05:05:17;;;;;;;23.60;9.88;;;1.50;99.90;;;;;;5111884;28;20042;-87
2023/12/03 05:07:42;;;;;;;14.88;6.05;;;1.50;99.90;;;;;;5111564;28;20044;-88
2023/12/03 05:10:08;;;;;;;21.60;9.05;;;1.50;99.90;;;;;;5111348;28;20039;-87
2023/12/03 05:12:34;;;;;;;22.10;8.65;;;1.50;99.90;;;;;;5111338;28;20383;-87
2023/12/03 05:14:59;;;;;;;23.25;9.73;;;1.60;99.90;;;;;;5111369;28;20788;-88
2023/12/03 05:17:25;;;;;;;17.25;6.88;;;1.50;99.90;;;;;;5111410;28;20067;-87
2023/12/03 05:19:51;;;;;;;21.15;8.05;;;1.50;99.90;;;;;;5094331;28;20453;-87
2023/12/03 05:22:16;;;;;;;18.00;7.43;;;1.60;99.90;;;;;;5094072;28;20074;-87
2023/12/03 05:24:42;;;;;;;23.48;9.70;;;1.60;99.90;;;;;;5093626;28;20128;-87
2023/12/03 05:27:07;;;;;;;20.33;8.63;;;1.60;99.90;;;;;;5110511;28;20040;-87
2023/12/03 05:29:33;;;;;;;20.00;7.25;;;1.60;99.90;;;;;;5093620;28;20398;-87
2023/12/03 05:31:58;;;;;;;27.33;10.05;;;1.60;99.90;;;;;;5110242;28;20080;-87
2023/12/03 05:34:24;;;;;;;20.13;7.70;;;1.70;99.90;;;;;;5110943;28;20032;-87
2023/12/03 05:36:51;;;;;;;22.23;7.72;;;1.70;99.90;;;;;;5111005;28;20495;-88
2023/12/03 05:39:16;;;;;;;18.70;7.45;;;1.70;99.90;;;;;;5093212;28;20038;-88
2023/12/03 05:41:42;;;;;;;18.52;8.73;;;1.70;99.90;;;;;;5092947;28;20035;-88
2023/12/03 05:44:08;;;;;;;19.52;8.10;;;1.70;99.90;;;;;;5092937;28;20039;-88
2023/12/03 05:46:41;;;;;;;16.00;6.32;;;1.70;99.90;;;;;;5110442;28;20112;-88
2023/12/03 05:49:08;;;;;;;24.98;9.70;;;1.70;99.90;;;;;;5093721;28;20035;-88
2023/12/03 05:51:34;;;;;;;25.63;9.93;;;1.80;99.90;;;;;;5093466;28;20044;-88
2023/12/03 05:53:59;;;;;;;29.60;10.80;;;1.70;99.90;;;;;;5093378;28;20046;-88
2023/12/03 05:56:25;;;;;;;26.35;12.27;;;1.70;99.90;;;;;;5110828;28;20035;-88
2023/12/03 05:58:51;;;;;;;24.48;9.73;;;1.80;99.90;;;;;;5093679;28;20035;-88
2023/12/03 06:01:24;;;;;;;24.70;9.98;;;1.80;99.90;;;;;;5093727;28;20146;-88
2023/12/03 06:03:49;;;;;;;;;;;1.80;99.90;;;;;;5110948;28;20043;-88
2023/12/03 06:06:16;;;;;;;25.48;9.63;;;1.80;99.90;;;;;;5110654;28;20327;-88
2023/12/03 06:08:41;;;;;;;21.30;8.35;;;1.80;99.90;;;;;;5093593;28;20035;-88
2023/12/03 06:11:07;;;;;;;20.48;8.15;;;1.80;99.90;;;;;;5093192;28;20047;-88
2023/12/03 06:13:32;;;;;;;22.45;7.57;;;1.80;99.90;;;;;;5092120;28;20490;-88
2023/12/03 06:15:58;;;;;;;23.52;9.40;;;1.80;99.90;;;;;;5110974;28;20039;-88
2023/12/03 06:18:24;;;;;;;29.20;10.93;;;1.90;99.90;;;;;;5094933;28;20089;-88
2023/12/03 06:20:49;;;;;;;22.60;7.57;;;1.90;99.90;;;;;;5111433;28;20159;-88
2023/12/03 06:23:15;;;;;;;21.05;6.95;;;1.80;99.90;;;;;;5093274;28;20036;-88
2023/12/03 06:25:40;;;;;;;18.60;8.48;;;1.90;99.90;;;;;;5092833;28;20498;-89
2023/12/03 06:28:06;;;;;;;17.83;8.07;;;1.90;99.90;;;;;;5092785;28;20042;-86
2023/12/03 06:30:32;;;;;;;21.77;7.90;;;1.90;99.90;;;;;;5110002;28;20040;-86
2023/12/03 06:32:57;;;;;;;19.77;7.82;;;1.90;99.90;;;;;;5109770;28;20521;-86
2023/12/03 06:35:23;;;;;;;23.17;8.30;;;1.90;99.90;;;;;;5109591;28;20047;-87
2023/12/03 06:37:48;;;;;;;26.20;8.27;;;1.90;99.90;;;;;;5092766;28;20038;-87
2023/12/03 06:40:14;;;;;;;28.10;10.77;;;1.90;99.90;;;;;;5093029;28;20035;-87
2023/12/03 06:42:40;;;;;;;30.17;10.52;;;1.90;99.90;;;;;;5092953;28;20082;-87
2023/12/03 06:45:07;;;;;;;23.60;9.63;;;1.90;99.90;;;;;;5092905;28;20083;-86
2023/12/03 06:47:32;;;;;;;19.17;7.70;;;1.90;99.90;;;;;;5126184;28;20046;-86
2023/12/03 06:49:58;;;;;;;21.35;8.45;;;1.90;99.90;;;;;;5110010;28;20039;-86
2023/12/03 06:52:23;;;;;;;18.00;7.93;;;1.90;99.90;;;;;;5092602;28;20514;-86
2023/12/03 06:54:49;;;;;;;24.88;9.15;;;1.90;99.90;;;;;;5092722;28;20119;-86
2023/12/03 06:57:14;;;;;;;21.40;8.55;;;1.90;99.90;;;;;;5114070;28;20050;-86
2023/12/03 06:59:43;;;;;;;22.55;7.40;;;1.90;99.90;;;;;;5095859;28;20067;-87
2023/12/03 07:02:08;;;;;;;25.55;9.32;;;1.90;99.90;;;;;;5096457;28;20038;-87
2023/12/03 07:04:34;;;;;;;25.60;10.18;;;1.90;99.90;;;;;;5096799;28;20411;-86
2023/12/03 07:07:00;;;;;;;29.38;11.15;;;1.90;99.90;;;;;;5096893;28;20044;-87
2023/12/03 07:09:25;;;;;;;29.33;10.30;;;1.90;99.90;;;;;;5096632;28;20110;-86
2023/12/03 07:11:51;;;;;;;29.67;11.05;;;1.90;99.90;;;;;;5096974;28;20028;-87
2023/12/03 07:14:17;;;;;;;23.20;8.07;;;1.90;99.90;;;;;;5096491;28;20542;-87
2023/12/03 07:16:42;;;;;;;27.23;9.90;;;2.00;99.90;;;;;;5113470;28;20040;-87
2023/12/03 07:19:08;;;;;;;23.48;8.10;;;2.00;99.90;;;;;;5096649;28;20036;-87
2023/12/03 07:21:34;;;;;;;26.65;10.23;;;1.90;99.90;;;;;;5096612;28;20039;-87
2023/12/03 07:23:59;;;;;;;25.15;9.30;;;1.90;99.90;;;;;;5112224;28;20504;-87
2023/12/03 07:26:25;;;;;;;26.98;8.77;;;2.00;99.90;;;;;;5112828;28;20050;-87
2023/12/03 07:28:51;;;;;;;26.38;10.23;;;1.90;99.90;;;;;;5096209;28;20039;-87
2023/12/03 07:31:17;;;;;;;30.42;10.70;;;2.00;99.90;;;;;;5112892;28;20132;-87
2023/12/03 07:33:42;;;;;;;23.85;8.75;;;2.00;99.90;;;;;;5113031;28;20042;-87
2023/12/03 07:36:09;;;;;;;22.70;9.63;;;2.00;99.90;;;;;;5095105;28;20737;-87
2023/12/03 07:38:35;;;;;;;22.77;7.43;;;2.00;99.90;;;;;;5095662;28;20036;-87
2023/12/03 07:41:01;;;;;;;19.40;8.32;;;2.00;99.90;;;;;;5113178;28;20054;-87
2023/12/03 07:43:26;;;;;;;23.23;10.05;;;2.00;99.90;;;;;;5111712;28;20031;-87
2023/12/03 07:45:52;;;;;;;25.58;9.45;;;2.00;99.90;;;;;;5092114;28;20541;-87
2023/12/03 07:48:18;;;;;;;20.23;8.10;;;2.00;99.90;;;;;;5119875;27;20405;-87
2023/12/03 07:50:44;;;;;;;27.20;9.98;;;2.00;99.90;;;;;;5112682;28;20044;-88
2023/12/03 07:53:10;;;;;;;20.38;7.97;;;2.00;99.90;;;;;;5088565;28;20036;-87
2023/12/03 07:55:36;;;;;;;23.38;9.63;;;2.00;99.90;;;;;;5087008;28;20040;-87
2023/12/03 07:58:02;;;;;;;27.92;9.75;;;2.00;99.90;;;;;;5096280;28;20435;-87
2023/12/03 08:00:27;;;;;;;27.92;9.77;;;2.00;99.90;;;;;;5112572;28;20035;-87
2023/12/03 08:02:53;;;;;;;26.65;10.38;;;2.10;99.90;;;;;;5112506;28;20506;-87
2023/12/03 08:05:19;;;;;;;24.45;10.40;;;2.10;99.90;;;;;;5112849;28;20048;-87
2023/12/03 08:07:44;;;;;;;18.15;7.80;;;2.10;99.90;;;;;;5095099;28;20051;-87
2023/12/03 08:10:10;;;;;;;22.92;8.70;;;2.10;99.90;;;;;;5095762;28;20059;-87
2023/12/03 08:12:35;;;;;;;31.88;10.90;;;2.00;99.90;;;;;;5095145;28;20038;-87
2023/12/03 08:15:01;;;;;;;26.52;10.98;;;2.10;99.90;;;;;;5095011;28;20546;-87
2023/12/03 08:17:26;;;;;;;28.58;10.48;;;2.10;99.90;;;;;;5112443;28;20050;-87
2023/12/03 08:19:52;;;;;;;28.63;11.02;;;2.10;99.90;;;;;;5094871;28;20036;-87
2023/12/03 08:22:18;;;;;;;28.70;11.70;;;2.20;99.90;;;;;;5095139;28;20069;-87
2023/12/03 08:24:43;;;;;;;21.70;9.10;;;2.20;99.90;;;;;;5095203;28;20039;-86
2023/12/03 08:27:09;;;;;;;25.70;9.68;;;2.20;99.90;;;;;;5111829;28;20097;-87
2023/12/03 08:29:34;;;;;;;29.70;12.57;;;2.30;99.90;;;;;;5095588;28;20469;-87
2023/12/03 08:32:00;;;;;;;21.60;10.55;;;2.20;99.90;;;;;;5094236;28;20050;-87
2023/12/03 08:34:26;;;;;;;30.02;9.40;;;2.20;99.90;;;;;;5111151;28;20036;-87
2023/12/03 08:36:51;;;;;;;24.75;9.65;;;2.30;99.90;;;;;;5095498;28;20032;-87
2023/12/03 08:39:17;;;;;;;17.58;8.77;;;2.30;99.90;;;;;;5095859;28;20036;-86
2023/12/03 08:41:43;;;;;;;27.83;10.88;;;2.30;99.90;;;;;;5094930;28;20036;-86
2023/12/03 08:44:08;;;;;;;34.72;12.43;;;2.40;99.90;;;;;;5094080;28;20043;-87
2023/12/03 08:46:34;;;;;;;24.55;10.68;;;2.40;99.90;;;;;;5111812;28;20051;-86
2023/12/03 08:48:59;;;;;;;28.95;10.20;;;2.30;99.90;;;;;;5094556;28;20510;-86
2023/12/03 08:51:25;;;;;;;29.92;11.32;;;2.40;99.90;;;;;;5094985;28;20039;-86
2023/12/03 08:53:51;;;;;;;30.98;12.23;;;2.40;99.90;;;;;;5110838;28;20426;-87
2023/12/03 08:56:17;;;;;;;36.88;13.32;;;2.40;99.90;;;;;;5094725;28;20161;-87
2023/12/03 08:58:42;;;;;;;31.48;11.57;;;2.40;99.90;;;;;;5094551;28;20035;-85
2023/12/03 09:01:08;;;;;;;30.30;11.82;;;2.50;99.90;;;;;;5094618;28;20038;-87
2023/12/03 09:03:34;;;;;;;30.05;14.77;;;2.50;99.90;;;;;;5093820;28;20079;-87
2023/12/03 09:06:03;;;;;;;32.15;13.25;;;2.50;99.90;;;;;;5094149;28;20046;-87
2023/12/03 09:08:29;;;;;;;18.40;9.68;;;2.60;99.90;;;;;;5093834;28;20039;-87
2023/12/03 09:10:54;;;;;;;25.42;11.13;;;2.50;99.90;;;;;;5093940;28;20406;-87
2023/12/03 09:13:20;;;;;;;29.50;10.82;;;2.50;99.90;;;;;;5093273;28;20085;-88
2023/12/03 09:15:46;;;;;;;25.50;12.05;;;2.60;99.90;;;;;;5093394;28;20122;-87
2023/12/03 09:18:11;;;;;;;30.80;12.70;;;2.60;99.90;;;;;;5092684;28;20045;-87
2023/12/03 09:20:37;;;;;;;26.48;12.07;;;2.60;99.90;;;;;;5092283;28;20670;-87
2023/12/03 09:23:02;;;;;;;22.80;9.90;;;2.70;99.90;;;;;;5093652;28;20047;-87
2023/12/03 09:25:28;;;;;;;26.35;10.40;;;2.70;99.90;;;;;;5094117;28;20035;-87
2023/12/03 09:27:54;;;;;;;20.52;9.73;;;2.70;99.90;;;;;;5093860;28;20537;-88
2023/12/03 09:30:19;;;;;;;27.50;14.30;;;2.70;99.90;;;;;;5110774;28;20051;-88
2023/12/03 09:32:46;;;;;;;19.40;9.73;;;2.70;99.90;;;;;;5110380;28;20093;-88
2023/12/03 09:35:11;;;;;;;19.42;8.38;;;2.70;99.90;;;;;;5093526;28;20028;-88
2023/12/03 09:37:37;;;;;;;25.20;12.77;;;2.80;99.90;;;;;;5110872;28;20050;-88
2023/12/03 09:40:03;;;;;;;30.13;13.82;;;2.80;99.90;;;;;;5093579;28;20039;-87
2023/12/03 09:42:33;;;;;;;28.08;12.70;;;2.80;99.90;;;;;;5109800;28;20035;-87
2023/12/03 09:45:09;;;;;;;29.35;14.45;;;2.80;99.90;;;;;;5093113;28;20051;-88
2023/12/03 09:47:36;;;;;;;20.20;11.02;;;2.90;99.90;;;;;;5092406;28;20035;-88
2023/12/03 09:50:04;;;;;;;27.85;12.50;;;2.90;99.90;;;;;;5109746;28;20489;-88
2023/12/03 09:52:35;;;;;;;21.33;9.60;;;2.90;99.90;;;;;;5093164;28;20040;-87
2023/12/03 09:55:02;;;;;;;21.95;12.27;;;2.90;99.90;;;;;;5093073;28;20055;-88
2023/12/03 09:57:29;;;;;;;21.10;10.90;;;2.90;99.90;;;;;;5092470;28;20081;-87
2023/12/03 10:00:07;;;;;;;24.30;10.32;;;2.80;99.90;;;;;;5108303;28;20114;-88
2023/12/03 10:02:34;;;;;;;23.42;11.80;;;2.90;99.90;;;;;;5143600;27;20035;-88
2023/12/03 10:04:59;;;;;;;22.67;10.85;;;2.80;99.90;;;;;;5093128;28;20100;-87
2023/12/03 10:07:28;;;;;;;22.77;11.20;;;2.90;99.90;;;;;;5109518;28;20039;-88
2023/12/03 10:09:59;;;;;;;22.50;11.23;;;2.90;99.90;;;;;;5092826;28;20035;-87
2023/12/03 10:12:32;;;;;;;20.67;10.38;;;3.00;99.90;;;;;;5092944;28;20047;-87
2023/12/03 10:14:58;;;;;;;21.48;10.27;;;3.00;99.90;;;;;;5093443;28;20521;-88
2023/12/03 10:17:24;;;;;;;26.27;13.88;;;3.10;99.90;;;;;;5093373;28;20563;-87
2023/12/03 10:19:49;;;;;;;24.05;12.20;;;3.20;99.90;;;;;;5093354;28;20135;-87
2023/12/03 10:22:15;;;;;;;28.08;11.35;;;3.30;99.90;;;;;;5093309;28;20093;-88
2023/12/03 10:24:48;;;;;;;25.35;12.50;;;3.40;99.90;;;;;;5093558;28;20118;-87
2023/12/03 10:27:14;;;;;;;;;;;3.40;99.90;;;;;;5145325;27;20040;-87
2023/12/03 10:29:39;;;;;;;24.50;12.50;;;3.40;99.90;;;;;;5092952;28;19952;-88
2023/12/03 10:32:07;;;;;;;22.35;12.45;;;3.40;99.90;;;;;;5109764;28;20071;-87
2023/12/03 10:34:32;;;;;;;25.85;12.48;;;3.40;99.90;;;;;;5092804;28;20035;-87
2023/12/03 10:37:00;;;;;;;18.00;9.70;;;3.30;99.90;;;;;;5093364;28;20379;-87
2023/12/03 10:39:26;;;;;;;17.48;8.07;;;3.30;99.90;;;;;;5110150;28;20043;-87
2023/12/03 10:41:52;;;;;;;13.35;7.70;;;3.40;99.90;;;;;;5093241;28;20047;-87
2023/12/03 10:44:19;;;;;;;22.52;11.55;;;3.50;99.90;;;;;;5109960;28;20039;-87
2023/12/03 10:46:45;;;;;;;26.50;13.15;;;3.60;99.90;;;;;;5144447;27;20410;-87
2023/12/03 10:49:12;;;;;;;30.88;14.77;;;3.70;99.90;;;;;;5110009;28;20678;-86
2023/12/03 10:51:47;;;;;;;26.00;12.35;;;3.80;99.90;;;;;;5092894;28;20538;-87
2023/12/03 10:54:13;;;;;;;25.20;12.30;;;3.90;99.90;;;;;;5093050;28;20036;-87
2023/12/03 10:56:40;;;;;;;21.05;10.15;;;4.00;99.90;;;;;;5093205;28;20043;-87
2023/12/03 10:59:12;;;;;;;19.27;9.15;;;4.10;99.90;;;;;;5085719;28;20044;-87
2023/12/03 11:01:39;;;;;;;20.02;11.50;;;4.00;99.90;;;;;;5094227;28;20047;-86
2023/12/03 11:04:41;;;;;;;22.15;11.27;;;4.00;99.90;;;;;;5144398;27;20052;-86
2023/12/03 11:07:07;;;;;;;24.77;11.40;;;4.00;99.90;;;;;;5093622;28;20406;-87
2023/12/03 11:09:38;;;;;;;22.48;10.00;;;4.00;99.90;;;;;;5092507;28;20036;-87
2023/12/03 11:12:06;;;;;;;18.23;9.00;;;3.90;99.90;;;;;;5109657;28;20118;-87
2023/12/03 11:14:32;;;;;;;22.23;9.50;;;3.80;99.90;;;;;;5092909;28;20625;-87
2023/12/03 11:17:22;;;;;;;24.73;12.50;;;3.70;99.90;;;;;;5109925;28;20504;-87
2023/12/03 11:19:53;;;;;;;23.98;12.38;;;3.60;99.90;;;;;;5092881;28;20079;-87
2023/12/03 11:22:37;;;;;;;23.85;11.70;;;3.50;99.90;;;;;;5092869;28;20032;-87
2023/12/03 11:25:14;;;;;;;25.33;10.80;;;3.40;99.90;;;;;;5092635;28;20097;-86
2023/12/03 11:27:43;;;;;;;18.30;9.00;;;3.30;99.90;;;;;;5092247;28;20123;-87
2023/12/03 11:30:13;;;;;;;29.70;11.80;;;3.30;99.90;;;;;;5092758;28;20043;-87
2023/12/03 11:32:40;;;;;;;18.02;8.98;;;3.20;99.90;;;;;;5109244;28;20088;-87
2023/12/03 11:35:08;;;;;;;26.55;12.90;;;3.20;99.90;;;;;;5109795;28;20042;-86
2023/12/03 11:37:34;;;;;;;26.73;12.00;;;3.10;99.90;;;;;;5092329;28;20145;-87
2023/12/03 11:40:15;;;;;;;24.35;11.93;;;3.10;99.90;;;;;;5092252;28;20130;-87
2023/12/03 11:42:49;;;;;;;31.20;14.40;;;3.10;99.90;;;;;;5145649;27;20047;-86
2023/12/03 11:45:29;;;;;;;30.05;15.23;;;3.00;99.90;;;;;;5147095;27;20036;-87
2023/12/03 11:48:11;;;;;;;29.38;14.30;;;3.00;99.90;;;;;;5096217;28;20040;-87
2023/12/03 11:50:42;;;;;;;29.42;13.82;;;3.00;99.90;;;;;;5146931;27;20104;-87
2023/12/03 11:53:09;;;;;;;19.95;10.63;;;3.00;99.90;;;;;;5095595;28;20039;-87
2023/12/03 11:55:37;;;;;;;20.02;9.52;;;3.00;99.90;;;;;;5096012;28;20040;-87
2023/12/03 11:58:04;;;;;;;16.65;7.47;;;3.10;99.90;;;;;;5095547;28;20044;-87
2023/12/03 12:00:30;;;;;;;37.95;15.90;;;3.10;99.90;;;;;;5095398;28;20036;-87
2023/12/03 12:02:56;;;;;;;35.00;15.35;;;3.20;99.90;;;;;;5095862;28;20040;-87
2023/12/03 12:05:21;;;;;;;33.88;16.50;;;3.30;99.90;;;;;;5095728;28;20573;-87
2023/12/03 12:08:01;;;;;;;29.88;13.90;;;3.30;99.90;;;;;;5112983;28;20035;-87
2023/12/03 12:10:31;;;;;;;28.55;13.80;;;3.40;99.90;;;;;;5146047;27;20039;-88
2023/12/03 12:13:01;;;;;;;22.05;12.20;;;3.40;99.90;;;;;;5089235;28;20042;-87
2023/12/03 12:15:26;;;;;;;32.17;15.75;;;4.00;99.90;;;;;;5095443;28;20412;-87
2023/12/03 12:17:52;;;;;;;28.52;14.40;;;4.70;99.90;;;;;;5111802;28;20043;-87
2023/12/03 12:20:29;;;;;;;29.88;14.68;;;5.40;99.90;;;;;;5112063;28;20087;-87
2023/12/03 12:22:56;;;;;;;20.85;11.50;;;6.50;99.90;;;;;;5125964;27;20520;-87
2023/12/03 12:25:25;;;;;;;28.30;14.95;;;7.90;99.90;;;;;;5095028;28;20035;-88
2023/12/03 12:27:52;;;;;;;30.58;15.68;;;9.20;99.90;;;;;;5109279;28;20089;-88
2023/12/03 12:30:30;;;;;;;26.80;12.45;;;10.50;99.90;;;;;;5112132;28;20036;-88
2023/12/03 12:32:56;;;;;;;28.80;12.40;;;11.40;99.90;;;;;;5092922;28;20040;-88
2023/12/03 12:35:24;;;;;;;21.58;9.23;;;12.30;99.90;;;;;;5094968;28;20088;-88
2023/12/03 12:38:06;;;;;;;20.92;10.13;;;12.90;99.90;;;;;;5095274;28;20114;-88
2023/12/03 12:40:38;;;;;;;26.27;13.05;;;13.50;99.90;;;;;;5095182;28;20036;-88